createdAt,value
2023-01-21T00:00:01.200Z,30.42
2023-01-21T00:01:04.020Z,27.67
2023-01-21T00:02:06.260Z,27.30
2023-01-21T00:03:09.265Z,28.33
2023-01-21T00:04:11.192Z,27.95
2023-01-21T00:05:14.250Z,30.58
2023-01-21T00:06:16.897Z,29.23
2023-01-21T00:07:19.657Z,31.75
2023-01-21T00:08:21.104Z,27.77
2023-01-21T00:10:27.138Z,26.52
2023-01-21T00:11:29.842Z,25.20
2023-01-21T00:12:32.170Z,29.08
2023-01-21T00:13:35.839Z,28.88
2023-01-21T00:14:38.214Z,27.73
2023-01-21T00:15:44.240Z,28.67
2023-01-21T00:16:46.146Z,27.02
2023-01-21T00:17:51.730Z,25.98
2023-01-21T00:18:55.865Z,27.77
2023-01-21T00:19:58.886Z,25.27
2023-01-21T00:21:04.422Z,26.40
2023-01-21T00:22:09.141Z,25.85
2023-01-21T00:23:11.146Z,23.85
2023-01-21T00:24:12.800Z,28.15
2023-01-21T00:25:17.449Z,24.90
2023-01-21T00:26:18.903Z,27.83
2023-01-21T00:27:21.157Z,24.00
2023-01-21T00:28:23.916Z,27.50
2023-01-21T00:29:26.613Z,22.95
2023-01-21T00:30:31.177Z,23.90
2023-01-21T00:31:35.537Z,26.48
2023-01-21T00:32:38.162Z,27.67
2023-01-21T00:33:40.217Z,23.58
2023-01-21T00:34:42.982Z,27.80
2023-01-21T00:35:44.502Z,24.73
2023-01-21T00:36:47.011Z,24.52
2023-01-21T00:37:50.860Z,26.75
2023-01-21T00:38:53.651Z,26.35
2023-01-21T00:39:55.173Z,27.92
2023-01-21T00:41:05.950Z,27.05
2023-01-21T00:42:11.540Z,26.48
2023-01-21T00:43:14.103Z,29.30
2023-01-21T00:44:16.457Z,26.77
2023-01-21T00:45:19.317Z,29.60
2023-01-21T00:46:22.232Z,28.02
2023-01-21T00:47:26.968Z,27.15
2023-01-21T00:48:32.078Z,23.48
2023-01-21T00:49:34.168Z,23.20
2023-01-21T00:50:37.256Z,26.08
2023-01-21T00:51:39.243Z,27.15
2023-01-21T00:52:41.815Z,22.33
2023-01-21T00:53:44.193Z,26.25
2023-01-21T00:54:49.555Z,23.60
2023-01-21T00:55:51.223Z,27.88
2023-01-21T00:56:56.303Z,23.45
2023-01-21T00:57:57.740Z,23.90
2023-01-21T00:59:05.301Z,27.35
2023-01-21T01:00:11.817Z,22.48
2023-01-21T01:01:18.112Z,24.73
2023-01-21T01:02:21.027Z,24.42
2023-01-21T01:03:23.202Z,24.67
2023-01-21T01:04:25.334Z,23.30
2023-01-21T01:05:27.237Z,28.23
2023-01-21T01:06:30.376Z,27.98
2023-01-21T01:07:32.229Z,28.88
2023-01-21T01:08:35.137Z,27.73
2023-01-21T01:09:37.177Z,27.95
2023-01-21T01:10:40.074Z,27.75
2023-01-21T01:11:42.179Z,26.10
2023-01-21T01:12:44.752Z,24.08
2023-01-21T01:13:47.207Z,26.25
2023-01-21T01:14:50.651Z,25.38
2023-01-21T01:15:59.067Z,26.20
2023-01-21T01:17:01.247Z,23.88
2023-01-21T01:18:03.528Z,25.08
2023-01-21T01:19:06.408Z,24.33
2023-01-21T01:20:09.125Z,25.17
2023-01-21T01:21:16.715Z,24.05
2023-01-21T01:22:18.155Z,27.70
2023-01-21T01:23:21.292Z,24.02
2023-01-21T01:24:23.190Z,23.17
2023-01-21T01:25:25.189Z,25.83
2023-01-21T01:26:27.316Z,24.75
2023-01-21T01:27:33.446Z,25.35
2023-01-21T01:28:35.359Z,25.23
2023-01-21T01:29:38.145Z,26.23
2023-01-21T01:30:39.608Z,30.05
2023-01-21T01:31:41.261Z,25.83
2023-01-21T01:32:43.233Z,22.58
2023-01-21T01:33:46.265Z,26.45
2023-01-21T01:34:48.178Z,27.73
2023-01-21T01:35:50.222Z,26.42
2023-01-21T01:36:52.174Z,22.00
2023-01-21T01:37:54.263Z,26.23
2023-01-21T01:38:56.656Z,22.98
2023-01-21T01:40:00.348Z,26.80
2023-01-21T01:41:02.238Z,24.05
2023-01-21T01:42:05.080Z,21.10
2023-01-21T01:43:13.069Z,21.70
2023-01-21T01:44:33.170Z,25.05
2023-01-21T01:45:35.338Z,26.52
2023-01-21T01:46:38.394Z,25.10
2023-01-21T01:47:58.299Z,26.92
2023-01-21T01:49:08.829Z,26.65
2023-01-21T01:50:16.597Z,31.92
2023-01-21T01:51:21.663Z,27.55
2023-01-21T01:52:24.173Z,32.05
2023-01-21T01:53:27.110Z,27.80
2023-01-21T01:54:38.622Z,28.10
2023-01-21T01:55:43.292Z,28.40
2023-01-21T01:56:48.425Z,27.25
2023-01-21T01:57:51.722Z,26.52
2023-01-21T01:58:53.357Z,29.17
2023-01-21T01:59:55.257Z,26.20
2023-01-21T02:00:57.641Z,26.77
2023-01-21T02:02:03.659Z,26.40
2023-01-21T02:03:36.042Z,25.85
2023-01-21T02:06:43.349Z,25.13
2023-01-21T02:07:46.001Z,29.83
2023-01-21T02:08:48.354Z,26.85
2023-01-21T02:09:51.698Z,24.90
2023-01-21T02:10:56.234Z,24.92
2023-01-21T02:12:00.004Z,25.33
2023-01-21T02:13:02.403Z,29.90
2023-01-21T02:14:07.334Z,27.40
2023-01-21T02:15:12.002Z,22.90
2023-01-21T02:16:33.163Z,27.58
2023-01-21T02:17:40.649Z,23.58
2023-01-21T02:19:00.913Z,23.40
2023-01-21T02:20:23.309Z,24.15
2023-01-21T02:21:44.111Z,24.58
2023-01-21T02:23:05.152Z,25.80
2023-01-21T02:24:25.574Z,24.95
2023-01-21T02:25:45.952Z,27.98
2023-01-21T02:27:08.536Z,26.98
2023-01-21T02:28:31.149Z,24.92
2023-01-21T02:30:06.912Z,25.63
2023-01-21T02:31:27.712Z,22.98
2023-01-21T02:32:48.118Z,23.05
2023-01-21T02:34:01.714Z,22.83
2023-01-21T02:35:16.627Z,26.05
2023-01-21T02:36:18.400Z,23.05
2023-01-21T02:37:41.448Z,29.48
2023-01-21T02:39:01.947Z,27.33
2023-01-21T02:40:18.883Z,26.40
2023-01-21T02:41:31.133Z,27.13
2023-01-21T02:42:47.659Z,27.85
2023-01-21T02:44:04.373Z,28.10
2023-01-21T02:45:26.208Z,22.67
2023-01-21T02:46:57.016Z,26.45
2023-01-21T02:48:01.139Z,29.50
2023-01-21T02:49:27.303Z,37.10
2023-01-21T02:50:30.364Z,32.22
2023-01-21T02:51:31.871Z,36.83
2023-01-21T02:53:39.341Z,36.53
2023-01-21T02:54:41.558Z,38.97
2023-01-21T02:55:43.617Z,39.72
2023-01-21T02:56:46.459Z,39.17
2023-01-21T02:57:50.910Z,33.47
2023-01-21T02:58:55.145Z,35.90
2023-01-21T02:59:58.380Z,36.63
2023-01-21T03:01:12.161Z,36.25
2023-01-21T03:02:14.277Z,37.13
2023-01-21T03:03:41.502Z,35.30
2023-01-21T03:04:43.193Z,33.72
2023-01-21T03:06:06.455Z,38.22
2023-01-21T03:07:13.539Z,35.80
2023-01-21T03:08:19.916Z,40.22
2023-01-21T03:09:28.938Z,37.38
2023-01-21T03:10:33.430Z,36.15
2023-01-21T03:11:35.293Z,34.97
2023-01-21T03:12:55.609Z,28.80
2023-01-21T03:14:21.329Z,29.10
2023-01-21T03:16:01.145Z,28.13
2023-01-21T03:17:41.826Z,28.80
2023-01-21T03:18:46.025Z,26.88
2023-01-21T03:19:55.802Z,28.58
2023-01-21T03:21:03.045Z,31.13
2023-01-21T03:22:08.456Z,29.75
2023-01-21T03:23:13.479Z,29.40
2023-01-21T03:24:15.918Z,30.65
2023-01-21T03:25:17.444Z,32.22
2023-01-21T03:26:20.645Z,34.53
2023-01-21T03:27:23.848Z,31.38
2023-01-21T03:28:29.048Z,25.98
2023-01-21T03:29:32.177Z,31.10
2023-01-21T03:30:37.564Z,26.70
2023-01-21T03:31:41.642Z,34.42
2023-01-21T03:32:45.350Z,29.15
2023-01-21T03:33:50.628Z,29.63
2023-01-21T03:34:54.853Z,27.85
2023-01-21T03:35:59.024Z,27.75
2023-01-21T03:37:05.882Z,29.98
2023-01-21T03:38:26.046Z,30.10
2023-01-21T03:39:48.050Z,28.48
2023-01-21T03:40:54.097Z,31.58
2023-01-21T03:41:55.814Z,31.63
2023-01-21T03:42:58.604Z,30.77
2023-01-21T03:44:00.915Z,31.90
2023-01-21T03:45:03.750Z,30.85
2023-01-21T03:46:23.717Z,29.27
2023-01-21T03:47:43.974Z,29.13
2023-01-21T03:48:51.121Z,30.73
2023-01-21T03:50:13.639Z,26.10
2023-01-21T03:51:17.696Z,28.70
2023-01-21T03:52:21.883Z,25.38
2023-01-21T03:53:24.300Z,27.45
2023-01-21T03:54:27.081Z,25.10
2023-01-21T03:55:30.716Z,27.00
2023-01-21T03:56:34.625Z,25.63
2023-01-21T03:57:36.418Z,26.55
2023-01-21T03:58:38.248Z,27.13
2023-01-21T03:59:42.519Z,29.40
2023-01-21T04:00:45.159Z,28.38
2023-01-21T04:01:48.183Z,29.15
2023-01-21T04:02:50.306Z,27.73
2023-01-21T04:03:53.187Z,28.35
2023-01-21T04:04:55.269Z,30.63
2023-01-21T04:05:58.215Z,30.70
2023-01-21T04:07:00.666Z,33.30
2023-01-21T04:08:02.415Z,30.63
2023-01-21T04:09:07.122Z,32.78
2023-01-21T04:10:12.383Z,32.33
2023-01-21T04:11:14.566Z,27.70
2023-01-21T04:12:17.713Z,29.45
2023-01-21T04:13:19.256Z,29.27
2023-01-21T04:14:21.909Z,29.42
2023-01-21T04:15:24.245Z,36.00
2023-01-21T04:16:27.016Z,30.95
2023-01-21T04:17:29.253Z,28.38
2023-01-21T04:18:31.370Z,30.13
2023-01-21T04:19:33.256Z,31.90
2023-01-21T04:20:37.556Z,29.13
2023-01-21T04:21:39.287Z,27.02
2023-01-21T04:22:42.413Z,31.05
2023-01-21T04:23:44.947Z,29.65
2023-01-21T04:24:47.469Z,29.90
2023-01-21T04:25:50.123Z,31.80
2023-01-21T04:26:53.387Z,28.55
2023-01-21T04:27:55.296Z,26.13
2023-01-21T04:28:56.751Z,32.40
2023-01-21T04:29:58.314Z,30.85
2023-01-21T04:31:00.435Z,29.90
2023-01-21T04:32:04.775Z,28.60
2023-01-21T04:40:24.851Z,31.13
2023-01-21T04:42:29.394Z,29.08
2023-01-21T04:43:32.139Z,29.40
2023-01-21T04:44:34.993Z,32.85
2023-01-21T04:45:37.764Z,32.90
2023-01-21T04:46:39.281Z,30.52
2023-01-21T04:47:45.518Z,31.92
2023-01-21T04:48:47.281Z,31.85
2023-01-21T04:49:51.164Z,33.15
2023-01-21T04:50:53.321Z,32.38
2023-01-21T04:51:55.325Z,29.63
2023-01-21T04:52:57.269Z,55.97
2023-01-21T04:54:03.120Z,30.27
2023-01-21T04:55:05.814Z,31.77
2023-01-21T06:24:42.662Z,38.03
2023-01-21T06:25:45.437Z,42.53
2023-01-21T06:26:47.299Z,41.42
2023-01-21T06:27:52.627Z,39.25
2023-01-21T06:28:58.818Z,37.45
2023-01-21T06:30:01.581Z,37.90
2023-01-21T06:31:03.555Z,34.97
2023-01-21T06:32:06.293Z,41.37
2023-01-21T06:33:08.343Z,35.88
2023-01-21T06:34:12.772Z,34.13
2023-01-21T06:35:18.428Z,34.17
2023-01-21T06:36:23.653Z,34.50
2023-01-21T06:37:25.561Z,36.40
2023-01-21T06:38:28.281Z,30.15
2023-01-21T06:39:30.377Z,32.00
2023-01-21T06:40:35.380Z,29.50
2023-01-21T06:41:36.826Z,31.63
2023-01-21T06:42:39.944Z,30.67
2023-01-21T06:43:42.558Z,31.85
2023-01-21T06:44:45.456Z,30.20
2023-01-21T06:45:47.016Z,29.30
2023-01-21T06:47:00.771Z,31.25
2023-01-21T06:48:04.440Z,31.50
2023-01-21T06:49:08.564Z,33.55
2023-01-21T06:50:12.243Z,34.42
2023-01-21T06:51:14.311Z,34.40
2023-01-21T06:52:18.479Z,38.35
2023-01-21T06:53:22.910Z,32.22
2023-01-21T06:54:26.006Z,32.85
2023-01-21T06:55:28.411Z,33.30
2023-01-21T06:56:29.878Z,36.95
2023-01-21T06:57:32.296Z,34.90
2023-01-21T06:58:34.845Z,34.17
2023-01-21T06:59:36.370Z,34.80
2023-01-21T07:00:39.301Z,35.65
2023-01-21T07:01:41.321Z,33.80
2023-01-21T07:02:42.872Z,31.10
2023-01-21T07:03:45.943Z,33.35
2023-01-21T07:04:51.383Z,31.38
2023-01-21T07:05:52.908Z,34.95
2023-01-21T07:06:55.587Z,34.78
2023-01-21T07:07:58.014Z,37.28
2023-01-21T07:08:59.510Z,33.85
2023-01-21T07:10:01.565Z,36.50
2023-01-21T07:11:04.338Z,36.78
2023-01-21T07:12:06.596Z,37.17
2023-01-21T07:13:10.382Z,35.05
2023-01-21T07:14:11.890Z,37.42
2023-01-21T07:15:15.075Z,35.10
2023-01-21T07:16:17.425Z,39.78
2023-01-21T07:17:21.946Z,36.35
2023-01-21T07:18:24.332Z,32.95
2023-01-21T07:19:29.971Z,33.50
2023-01-21T07:20:32.459Z,34.75
2023-01-21T07:21:35.455Z,31.45
2023-01-21T07:22:37.310Z,35.28
2023-01-21T07:23:42.007Z,32.33
2023-01-21T07:24:44.327Z,34.50
2023-01-21T07:25:47.211Z,34.55
2023-01-21T07:26:51.641Z,35.17
2023-01-21T07:27:54.210Z,38.20
2023-01-21T07:28:55.675Z,36.00
2023-01-21T07:29:58.522Z,37.00
2023-01-21T07:31:01.360Z,37.63
2023-01-21T07:32:04.476Z,38.33
2023-01-21T07:33:06.995Z,38.20
2023-01-21T07:34:10.191Z,37.63
2023-01-21T07:35:12.611Z,37.22
2023-01-21T07:36:15.737Z,37.10
2023-01-21T07:37:17.389Z,39.35
2023-01-21T07:38:22.207Z,32.33
2023-01-21T07:39:26.859Z,34.05
2023-01-21T07:40:29.521Z,32.70
2023-01-21T07:41:31.354Z,28.75
2023-01-21T07:42:34.129Z,28.70
2023-01-21T07:43:36.309Z,27.38
2023-01-21T07:44:39.142Z,25.83
2023-01-21T07:45:41.475Z,28.52
2023-01-21T07:46:44.460Z,29.63
2023-01-21T07:47:46.609Z,27.60
2023-01-21T07:48:51.913Z,30.38
2023-01-21T07:49:55.735Z,29.35
2023-01-21T07:51:03.193Z,35.60
2023-01-21T07:52:05.439Z,31.42
2023-01-21T07:53:12.660Z,31.63
2023-01-21T07:54:14.766Z,31.95
2023-01-21T07:55:19.891Z,31.38
2023-01-21T07:56:22.570Z,31.52
2023-01-21T07:57:28.185Z,30.80
2023-01-21T07:58:30.353Z,31.73
2023-01-21T07:59:32.345Z,33.92
2023-01-21T08:00:34.346Z,31.98
2023-01-21T08:01:35.844Z,30.10
2023-01-21T08:02:37.379Z,31.13
2023-01-21T08:03:42.316Z,26.75
2023-01-21T08:04:44.357Z,30.42
2023-01-21T08:05:46.895Z,28.17
2023-01-21T08:06:51.564Z,25.80
2023-01-21T08:07:56.666Z,26.35
2023-01-21T08:08:58.126Z,43.15
2023-01-21T08:10:02.623Z,24.60
2023-01-21T08:11:09.889Z,25.40
2023-01-21T08:12:13.278Z,28.33
2023-01-21T08:13:15.370Z,24.13
2023-01-21T08:14:17.937Z,23.77
2023-01-21T08:15:22.633Z,24.75
2023-01-21T08:16:25.391Z,22.10
2023-01-21T08:17:27.339Z,23.35
2023-01-21T08:18:30.232Z,25.67
2023-01-21T08:19:34.716Z,21.80
2023-01-21T08:20:36.349Z,21.15
2023-01-21T08:21:37.791Z,18.83
2023-01-21T08:22:39.499Z,20.10
2023-01-21T08:23:44.847Z,20.27
2023-01-21T08:24:46.415Z,20.73
2023-01-21T08:25:48.357Z,17.75
2023-01-21T08:26:52.685Z,18.00
2023-01-21T08:27:56.613Z,18.25
2023-01-21T08:28:58.404Z,20.02
2023-01-21T08:30:00.994Z,17.65
2023-01-21T08:31:06.474Z,19.55
2023-01-21T08:32:12.467Z,18.45
2023-01-21T08:33:14.334Z,17.50
2023-01-21T08:34:17.067Z,18.38
2023-01-21T08:35:19.593Z,16.63
2023-01-21T08:36:21.382Z,15.32
2023-01-21T08:37:24.678Z,18.20
2023-01-21T08:38:26.338Z,15.35
2023-01-21T08:39:30.069Z,14.85
2023-01-21T08:40:34.010Z,16.45
2023-01-21T08:41:35.556Z,16.35
2023-01-21T08:42:37.048Z,13.27
2023-01-21T08:43:40.671Z,15.10
2023-01-21T08:44:42.162Z,14.25
2023-01-21T08:45:44.382Z,14.60
2023-01-21T08:46:46.352Z,15.18
2023-01-21T08:47:51.685Z,10.00
2023-01-21T08:48:55.867Z,12.85
2023-01-21T08:49:58.467Z,11.07
2023-01-21T08:51:00.741Z,11.07
2023-01-21T08:52:03.744Z,13.20
2023-01-21T08:53:06.366Z,11.75
2023-01-21T08:54:12.134Z,13.13
2023-01-21T08:55:14.484Z,14.10
2023-01-21T08:56:17.925Z,17.70
2023-01-21T08:57:22.655Z,12.45
2023-01-21T08:58:25.625Z,11.98
2023-01-21T08:59:31.238Z,15.07
2023-01-21T09:00:34.099Z,13.15
2023-01-21T09:01:40.872Z,12.13
2023-01-21T09:02:43.898Z,14.43
2023-01-21T09:03:45.337Z,12.98
2023-01-21T09:04:48.326Z,13.30
2023-01-21T09:05:52.222Z,12.00
2023-01-21T09:06:54.932Z,12.52
2023-01-21T09:07:58.306Z,10.02
2023-01-21T09:09:04.818Z,11.65
2023-01-21T09:10:07.017Z,13.23
2023-01-21T09:11:10.241Z,14.55
2023-01-21T09:12:12.541Z,13.18
2023-01-21T09:13:16.508Z,11.45
2023-01-21T09:14:22.112Z,10.73
2023-01-21T09:15:26.941Z,11.48
2023-01-21T09:16:31.904Z,12.18
2023-01-21T09:17:34.914Z,11.35
2023-01-21T09:18:37.615Z,11.40
2023-01-21T09:19:42.902Z,12.75
2023-01-21T09:20:44.368Z,10.93
2023-01-21T09:21:46.962Z,11.90
2023-01-21T09:22:52.467Z,13.63
2023-01-21T09:23:55.882Z,13.10
2023-01-21T09:24:57.349Z,12.45
2023-01-21T09:26:10.089Z,12.40
2023-01-21T09:27:12.481Z,12.60
2023-01-21T09:28:16.425Z,11.98
2023-01-21T09:29:18.400Z,12.00
2023-01-21T09:30:21.069Z,11.80
2023-01-21T09:31:24.774Z,13.75
2023-01-21T09:32:27.652Z,14.32
2023-01-21T09:33:33.008Z,12.88
2023-01-21T09:34:38.873Z,11.57
2023-01-21T09:35:40.386Z,12.38
2023-01-21T09:36:45.106Z,12.13
2023-01-21T09:37:48.427Z,13.02
2023-01-21T09:38:51.661Z,12.15
2023-01-21T09:39:53.456Z,12.32
2023-01-21T09:40:58.847Z,13.45
2023-01-21T09:42:02.894Z,15.13
2023-01-21T09:43:11.158Z,13.10
2023-01-21T09:44:13.426Z,14.20
2023-01-21T09:45:17.623Z,12.60
2023-01-21T09:46:30.319Z,14.20
2023-01-21T09:47:42.384Z,15.18
2023-01-21T09:48:49.377Z,14.60
2023-01-21T09:50:05.346Z,15.25
2023-01-21T09:51:15.141Z,16.48
2023-01-21T09:52:35.305Z,14.60
2023-01-21T09:53:53.201Z,16.03
2023-01-21T09:54:57.421Z,15.93
2023-01-21T09:56:03.463Z,15.45
2023-01-21T09:57:23.785Z,16.50
2023-01-21T09:58:44.695Z,18.08
2023-01-21T10:00:06.300Z,16.10
2023-01-21T10:01:21.771Z,16.25
2023-01-21T10:02:42.025Z,15.33
2023-01-21T10:03:55.769Z,15.57
2023-01-21T10:05:12.023Z,18.15
2023-01-21T10:06:44.057Z,15.95
2023-01-21T10:07:53.568Z,16.00
2023-01-21T10:09:04.011Z,15.82
2023-01-21T10:10:15.286Z,16.67
2023-01-21T10:11:23.442Z,17.15
2023-01-21T10:12:43.666Z,16.08
2023-01-21T10:14:03.857Z,16.52
2023-01-21T10:15:24.097Z,16.33
2023-01-21T10:16:45.890Z,17.95
2023-01-21T10:18:06.260Z,18.40
2023-01-21T10:19:11.550Z,17.40
2023-01-21T10:20:28.160Z,16.20
2023-01-21T10:21:40.983Z,15.90
2023-01-21T10:22:48.209Z,15.48
2023-01-21T10:23:52.936Z,16.67
2023-01-21T10:25:13.071Z,17.73
2023-01-21T10:26:16.260Z,15.13
2023-01-21T10:27:22.501Z,15.80
2023-01-21T10:28:25.615Z,17.58
2023-01-21T10:29:28.710Z,17.50
2023-01-21T10:30:34.377Z,16.17
2023-01-21T10:31:42.726Z,16.48
2023-01-21T10:32:44.553Z,17.35
2023-01-21T10:33:47.185Z,20.67
2023-01-21T10:34:51.515Z,15.32
2023-01-21T10:36:12.590Z,17.15
2023-01-21T10:37:29.776Z,17.80
2023-01-21T10:38:51.064Z,18.45
2023-01-21T10:40:02.871Z,15.38
2023-01-21T10:41:22.937Z,15.80
2023-01-21T10:42:24.615Z,17.27
2023-01-21T10:43:44.452Z,17.13
2023-01-21T10:45:25.163Z,17.05
2023-01-21T10:46:42.374Z,18.35
2023-01-21T10:48:02.762Z,17.08
2023-01-21T10:49:24.585Z,15.85
2023-01-21T10:50:44.894Z,18.73
2023-01-21T10:51:58.479Z,17.13
2023-01-21T10:53:20.904Z,17.10
2023-01-21T10:54:29.272Z,16.50
2023-01-21T10:55:33.901Z,18.73
2023-01-21T10:56:36.509Z,18.05
2023-01-21T10:57:53.482Z,18.13
2023-01-21T10:59:22.969Z,17.48
2023-01-21T11:00:35.964Z,17.85
2023-01-21T11:01:44.905Z,17.67
2023-01-21T11:02:52.683Z,16.85
2023-01-21T11:03:55.300Z,17.95
2023-01-21T11:04:58.829Z,16.20
2023-01-21T11:06:02.071Z,16.50
2023-01-21T11:07:06.221Z,17.88
2023-01-21T11:08:15.054Z,17.65
2023-01-21T11:09:17.641Z,16.88
2023-01-21T11:10:22.195Z,21.00
2023-01-21T11:11:29.586Z,19.38
2023-01-21T11:12:32.895Z,19.00
2023-01-21T11:13:36.175Z,17.88
2023-01-21T11:14:40.939Z,20.60
2023-01-21T11:15:46.155Z,17.42
2023-01-21T11:16:51.921Z,17.70
2023-01-21T11:17:56.651Z,19.00
2023-01-21T11:18:58.546Z,19.45
2023-01-21T11:20:04.711Z,17.23
2023-01-21T11:21:25.221Z,17.35
2023-01-21T11:22:32.771Z,19.08
2023-01-21T11:23:37.599Z,18.20
2023-01-21T11:24:45.214Z,23.03
2023-01-21T11:25:49.417Z,17.13
2023-01-21T11:26:57.773Z,18.52
2023-01-21T11:27:59.445Z,18.02
2023-01-21T11:29:14.999Z,21.35
2023-01-21T11:30:48.321Z,21.65
2023-01-21T11:32:11.841Z,17.42
2023-01-21T11:33:18.238Z,19.77
2023-01-21T11:34:21.853Z,17.95
2023-01-21T11:35:23.554Z,19.50
2023-01-21T11:36:26.155Z,16.15
2023-01-21T11:37:28.919Z,17.98
2023-01-21T11:38:35.414Z,19.10
2023-01-21T11:39:40.188Z,17.25
2023-01-21T11:40:41.691Z,16.98
2023-01-21T11:41:51.034Z,20.85
2023-01-21T11:42:57.663Z,18.92
2023-01-21T11:44:18.432Z,19.13
2023-01-21T11:45:39.521Z,17.30
2023-01-21T11:46:41.448Z,19.02
2023-01-21T11:47:51.167Z,19.27
2023-01-21T11:48:57.953Z,18.85
2023-01-21T11:50:12.291Z,19.85
2023-01-21T11:51:16.281Z,19.60
2023-01-21T11:52:22.740Z,19.85
2023-01-21T11:53:25.199Z,17.52
2023-01-21T11:54:27.466Z,19.75
2023-01-21T11:55:32.968Z,18.45
2023-01-21T11:56:36.604Z,18.80
2023-01-21T11:57:42.349Z,20.40
2023-01-21T11:58:44.481Z,19.02
2023-01-21T11:59:47.991Z,18.23
2023-01-21T12:00:53.124Z,17.00
2023-01-21T12:02:03.763Z,18.98
2023-01-21T12:03:05.753Z,18.33
2023-01-21T12:04:23.528Z,19.00
2023-01-21T12:05:28.481Z,17.23
2023-01-21T12:06:36.697Z,17.15
2023-01-21T12:07:40.904Z,18.10
2023-01-21T12:08:42.727Z,19.75
2023-01-21T12:09:48.245Z,17.20
2023-01-21T12:10:51.980Z,18.15
2023-01-21T12:12:06.955Z,18.27
2023-01-21T12:13:12.355Z,17.95
2023-01-21T12:14:32.699Z,18.08
2023-01-21T12:15:56.205Z,17.67
2023-01-21T12:17:13.361Z,17.70
2023-01-21T12:18:40.865Z,17.77
2023-01-21T12:19:44.999Z,19.02
2023-01-21T12:20:58.796Z,17.88
2023-01-21T12:22:06.225Z,16.60
2023-01-21T12:23:26.610Z,17.83
2023-01-21T12:24:49.165Z,15.45
2023-01-21T12:26:07.177Z,17.25
2023-01-21T12:27:28.685Z,17.00
2023-01-21T12:28:46.152Z,19.48
2023-01-21T12:29:52.717Z,17.75
2023-01-21T12:31:12.731Z,15.93
2023-01-21T12:32:18.073Z,17.88
2023-01-21T12:33:40.580Z,17.83
2023-01-21T12:34:56.060Z,16.27
2023-01-21T12:36:10.181Z,18.70
2023-01-21T12:37:31.367Z,16.38
2023-01-21T12:38:51.438Z,16.45
2023-01-21T12:39:54.800Z,19.65
2023-01-21T12:41:05.561Z,21.00
2023-01-21T12:42:07.699Z,16.17
2023-01-21T12:43:15.869Z,21.35
2023-01-21T12:44:17.427Z,21.10
2023-01-21T12:45:23.960Z,17.63
2023-01-21T12:46:45.180Z,17.40
2023-01-21T12:48:05.839Z,17.30
2023-01-21T12:49:22.870Z,18.45
2023-01-21T12:50:32.221Z,16.95
2023-01-21T12:51:37.391Z,16.85
2023-01-21T12:52:57.707Z,16.50
2023-01-21T12:54:20.700Z,18.77
2023-01-21T12:55:44.373Z,17.42
2023-01-21T12:57:01.401Z,16.25
2023-01-21T12:58:06.134Z,18.90
2023-01-21T12:59:10.951Z,16.75
2023-01-21T13:00:24.219Z,17.38
2023-01-21T13:01:45.315Z,18.45
2023-01-21T13:03:03.959Z,17.17
2023-01-21T13:04:16.493Z,16.75
2023-01-21T13:05:38.630Z,16.33
2023-01-21T13:06:53.570Z,18.35
2023-01-21T13:08:13.807Z,18.40
2023-01-21T13:09:33.684Z,19.02
2023-01-21T13:10:45.434Z,18.42
2023-01-21T13:11:51.359Z,16.98
2023-01-21T13:13:13.350Z,18.23
2023-01-21T13:14:19.910Z,18.60
2023-01-21T13:15:27.337Z,17.38
2023-01-21T13:16:31.326Z,18.20
2023-01-21T13:17:35.114Z,16.00
2023-01-21T13:18:46.332Z,17.35
2023-01-21T13:19:51.635Z,18.10
2023-01-21T13:20:55.252Z,18.73
2023-01-21T13:22:15.667Z,16.20
2023-01-21T13:23:36.219Z,17.40
2023-01-21T13:24:46.796Z,16.27
2023-01-21T13:26:10.848Z,17.23
2023-01-21T13:27:17.113Z,20.75
2023-01-21T13:28:24.470Z,18.05
2023-01-21T13:29:33.226Z,16.17
2023-01-21T13:30:58.439Z,16.83
2023-01-21T13:32:12.729Z,17.40
2023-01-21T13:33:25.735Z,16.67
2023-01-21T13:34:39.327Z,18.10
2023-01-21T13:36:01.881Z,17.83
2023-01-21T13:37:14.608Z,16.80
2023-01-21T13:38:53.457Z,17.60
2023-01-21T13:40:14.608Z,13.60
2023-01-21T13:41:36.675Z,14.18
2023-01-21T13:42:59.141Z,15.95
2023-01-21T13:44:10.489Z,16.30
2023-01-21T13:45:31.346Z,17.88
2023-01-21T13:46:55.198Z,17.98
2023-01-21T13:48:16.399Z,19.60
2023-01-21T13:49:36.725Z,16.60
2023-01-21T13:50:44.100Z,17.38
2023-01-21T13:52:05.455Z,16.75
2023-01-21T13:53:19.430Z,16.95
2023-01-21T13:54:34.139Z,16.42
2023-01-21T13:55:39.627Z,17.23
2023-01-21T13:57:05.013Z,15.40
2023-01-21T13:58:15.850Z,17.95
2023-01-21T13:59:23.406Z,19.42
2023-01-21T14:00:38.767Z,16.30
2023-01-21T14:01:58.936Z,15.93
2023-01-21T14:03:19.150Z,18.02
2023-01-21T14:04:32.608Z,14.80
2023-01-21T14:05:44.031Z,15.23
2023-01-21T14:07:06.702Z,14.48
2023-01-21T14:08:12.139Z,16.42
2023-01-21T14:09:24.341Z,16.08
2023-01-21T14:10:45.258Z,14.57
2023-01-21T14:12:04.711Z,14.77
2023-01-21T14:13:35.677Z,16.15
2023-01-21T14:14:54.354Z,15.98
2023-01-21T14:16:16.661Z,15.60
2023-01-21T14:17:32.822Z,12.93
2023-01-21T14:19:10.719Z,16.35
2023-01-21T14:20:32.925Z,14.73
2023-01-21T14:21:34.530Z,15.40
2023-01-21T14:22:56.346Z,19.13
2023-01-21T14:24:23.617Z,17.40
2023-01-21T14:25:35.739Z,16.83
2023-01-21T14:26:56.276Z,15.63
2023-01-21T14:28:11.996Z,17.42
2023-01-21T14:29:34.663Z,15.20
2023-01-21T14:30:41.929Z,15.63
2023-01-21T14:32:04.458Z,16.13
2023-01-21T14:33:13.820Z,17.05
2023-01-21T14:34:27.586Z,16.60
2023-01-21T14:35:57.802Z,16.42
2023-01-21T14:37:26.258Z,16.13
2023-01-21T14:38:34.435Z,14.68
2023-01-21T14:39:54.434Z,15.38
2023-01-21T14:41:06.354Z,13.95
2023-01-21T14:42:11.040Z,15.73
2023-01-21T14:43:43.029Z,16.35
2023-01-21T14:44:56.730Z,13.77
2023-01-21T14:45:59.883Z,14.45
2023-01-21T14:47:23.036Z,15.80
2023-01-21T14:48:43.312Z,15.73
2023-01-21T14:49:46.994Z,16.23
2023-01-21T14:50:54.825Z,14.45
2023-01-21T14:51:58.345Z,13.63
2023-01-21T14:53:01.987Z,15.43
2023-01-21T14:54:18.078Z,14.98
2023-01-21T14:55:30.545Z,16.27
2023-01-21T14:56:37.123Z,17.70
2023-01-21T14:57:41.340Z,16.90
2023-01-21T14:58:47.780Z,17.20
2023-01-21T14:59:53.265Z,21.02
2023-01-21T15:00:55.563Z,19.42
2023-01-21T15:01:59.161Z,21.88
2023-01-21T15:03:19.206Z,18.75
2023-01-21T15:04:25.704Z,16.25
2023-01-21T15:05:28.974Z,16.10
2023-01-21T15:06:31.813Z,16.08
2023-01-21T15:07:42.318Z,16.30
2023-01-21T15:08:47.414Z,15.60
2023-01-21T15:09:55.684Z,15.27
2023-01-21T15:11:05.425Z,15.45
2023-01-21T15:12:19.974Z,16.58
2023-01-21T15:13:40.047Z,16.52
2023-01-21T15:14:43.238Z,16.90
2023-01-21T15:16:03.747Z,18.45
2023-01-21T15:17:05.608Z,18.02
2023-01-21T15:18:26.290Z,18.33
2023-01-21T15:19:28.489Z,16.90
2023-01-21T15:21:01.645Z,17.63
2023-01-21T15:22:03.952Z,15.70
2023-01-21T15:23:28.280Z,17.73
2023-01-21T15:24:34.354Z,15.95
2023-01-21T15:25:39.293Z,17.85
2023-01-21T15:26:42.399Z,16.67
2023-01-21T15:28:03.512Z,18.33
2023-01-21T15:29:45.324Z,16.50
2023-01-21T15:30:58.815Z,17.52
2023-01-21T15:32:22.187Z,17.52
2023-01-21T15:33:27.565Z,53.38
2023-01-21T15:34:29.833Z,23.13
2023-01-21T15:35:40.579Z,19.45
2023-01-21T15:36:45.301Z,16.25
2023-01-21T15:37:50.663Z,15.65
2023-01-21T15:38:53.622Z,17.23
2023-01-21T15:40:01.860Z,16.25
2023-01-21T15:41:11.014Z,15.43
2023-01-21T15:42:33.045Z,15.77
2023-01-21T15:43:55.241Z,17.40
2023-01-21T15:45:21.539Z,17.52
2023-01-21T15:46:32.912Z,15.85
2023-01-21T15:47:50.841Z,18.95
2023-01-21T15:49:12.122Z,16.92
2023-01-21T15:50:32.192Z,17.80
2023-01-21T15:51:39.919Z,18.55
2023-01-21T15:52:55.345Z,20.50
2023-01-21T15:53:57.754Z,17.55
2023-01-21T15:55:02.401Z,16.80
2023-01-21T15:56:23.490Z,16.70
2023-01-21T15:57:44.126Z,15.40
2023-01-21T15:58:52.639Z,17.88
2023-01-21T16:00:13.056Z,15.98
2023-01-21T16:01:34.424Z,16.27
2023-01-21T16:02:50.704Z,14.90
2023-01-21T16:04:03.909Z,15.52
2023-01-21T16:05:24.489Z,17.45
2023-01-21T16:06:36.617Z,18.13
2023-01-21T16:07:56.578Z,19.08
2023-01-21T16:09:05.959Z,16.13
2023-01-21T16:10:12.281Z,16.67
2023-01-21T16:11:33.252Z,16.38
2023-01-21T16:12:53.608Z,18.42
2023-01-21T16:14:14.251Z,15.25
2023-01-21T16:15:34.738Z,15.57
2023-01-21T16:16:47.463Z,14.90
2023-01-21T16:18:24.083Z,15.05
2023-01-21T16:19:29.073Z,16.03
2023-01-21T16:20:32.628Z,17.42